Time;durP1;ratioP1;P1;durP2;ratioP2;P2;SDS_P1;SDS_P2;PMS_P1;PMS_P2;Temp;Humidity;BMP_temperature;BMP_pressure;BME280_temperature;BME280_humidity;BME280_pressure;Samples;Min_cycle;Max_cycle;Signal;HPM_P1;HPM_P2
2023/03/25 00:00:13;;;;;;;;;;;11.10;99.90;;;;;;2059297;28;20023;-75
2023/03/25 00:01:14;;;;;;;;;;;11.00;99.90;;;;;;2059222;28;19910;-74
2023/03/25 00:02:15;;;;;;;;;;;11.00;99.90;;;;;;2058415;28;20008;-74
2023/03/25 00:03:16;;;;;;;;;;;11.00;99.90;;;;;;2059521;28;19917;-74
2023/03/25 00:04:17;;;;;;;;;;;11.10;99.90;;;;;;2058867;28;20332;-74
2023/03/25 00:05:18;;;;;;;;;;;11.10;99.90;;;;;;2060599;28;19981;-74
2023/03/25 00:06:19;;;;;;;;;;;11.10;99.90;;;;;;2064593;28;20432;-74
2023/03/25 00:07:20;;;;;;;;;;;11.00;99.90;;;;;;2064977;28;20343;-74
2023/03/25 00:08:21;;;;;;;;;;;11.00;99.90;;;;;;2060005;28;19953;-74
2023/03/25 00:09:22;;;;;;;;;;;11.00;99.90;;;;;;2060793;28;20381;-74
2023/03/25 00:10:22;;;;;;;;;;;11.00;99.90;;;;;;2059528;28;20243;-74
2023/03/25 00:11:23;;;;;;;;;;;11.00;99.90;;;;;;2060786;28;19916;-74
2023/03/25 00:12:23;;;;;;;;;;;11.00;99.90;;;;;;2059626;28;20825;-74
2023/03/25 00:13:24;;;;;;;;;;;11.00;99.90;;;;;;2061454;28;20239;-74
2023/03/25 00:14:25;;;;;;;;;;;11.00;99.90;;;;;;2059159;28;19954;-74
2023/03/25 00:15:25;;;;;;;;;;;11.00;99.90;;;;;;2060006;28;19906;-74
2023/03/25 00:16:26;;;;;;;;;;;11.00;99.90;;;;;;2068421;28;19910;-74
2023/03/25 00:17:27;;;;;;;;;;;11.00;99.90;;;;;;2066351;28;19905;-74
2023/03/25 00:18:32;;;;;;;;;;;11.00;99.90;;;;;;2059682;28;19906;-74
2023/03/25 00:19:34;;;;;;;;;;;10.90;99.90;;;;;;2067438;28;19914;-73
2023/03/25 00:20:34;;;;;;;;;;;10.90;99.90;;;;;;2056290;28;20048;-73
2023/03/25 00:21:35;;;;;;;;;;;10.90;99.90;;;;;;2053739;28;19918;-74
2023/03/25 00:22:39;;;;;;;;;;;10.90;99.90;;;;;;2062306;28;19906;-74
2023/03/25 00:23:40;;;;;;;;;;;10.90;99.90;;;;;;2062764;28;19910;-73
2023/03/25 00:24:40;;;;;;;;;;;10.90;99.90;;;;;;2062574;28;20456;-74
2023/03/25 00:25:43;;;;;;;;;;;10.80;99.90;;;;;;2060573;28;19960;-74
2023/03/25 00:26:45;;;;;;;;;;;10.80;99.90;;;;;;2059392;28;19910;-73
2023/03/25 00:27:47;;;;;;;;;;;10.80;99.90;;;;;;2059514;28;20362;-74
2023/03/25 00:28:47;;;;;;;;;;;10.80;99.90;;;;;;2057210;28;19910;-74
2023/03/25 00:29:48;;;;;;;;;;;10.80;99.90;;;;;;2058005;28;19952;-74
2023/03/25 00:30:48;;;;;;;;;;;10.80;99.90;;;;;;2059503;28;20354;-74
2023/03/25 00:31:49;;;;;;;;;;;10.80;99.90;;;;;;2059377;28;19949;-74
2023/03/25 00:32:51;;;;;;;;;;;10.80;99.90;;;;;;2060349;28;19912;-74
2023/03/25 00:33:51;;;;;;;;;;;10.80;99.90;;;;;;2059023;28;20003;-74
2023/03/25 00:34:52;;;;;;;;;;;10.70;99.90;;;;;;2057993;28;19919;-74
2023/03/25 00:35:57;;;;;;;;;;;10.80;99.90;;;;;;2059307;28;19918;-73
2023/03/25 00:36:58;;;;;;;;;;;10.70;99.90;;;;;;2058115;28;19909;-73
2023/03/25 00:38:01;;;;;;;;;;;10.70;99.90;;;;;;2058661;28;19917;-74
2023/03/25 00:39:03;;;;;;;;;;;10.70;99.90;;;;;;2059304;28;20309;-74
2023/03/25 00:40:04;;;;;;;;;;;10.70;99.90;;;;;;2059469;28;19976;-74
2023/03/25 00:41:10;;;;;;;;;;;10.70;99.90;;;;;;2059547;28;19921;-74
2023/03/25 00:42:14;;;;;;;;;;;10.80;99.90;;;;;;2059835;28;19917;-74
2023/03/25 00:43:14;;;;;;;;;;;10.70;99.90;;;;;;2064295;28;19917;-73
2023/03/25 00:44:16;;;;;;;;;;;10.70;99.90;;;;;;2066149;28;19916;-73
2023/03/25 00:45:16;;;;;;;;;;;10.80;99.90;;;;;;2058653;28;19906;-74
2023/03/25 00:46:17;;;;;;;;;;;10.70;99.90;;;;;;2067158;28;19917;-74
2023/03/25 00:47:19;;;;;;;;;;;10.70;99.90;;;;;;2068223;28;20001;-74
2023/03/25 00:48:20;;;;;;;;;;;10.70;99.90;;;;;;2058250;28;19996;-74
2023/03/25 00:49:23;;;;;;;;;;;10.70;99.90;;;;;;2057473;28;19914;-74
2023/03/25 00:50:25;;;;;;;;;;;10.70;99.90;;;;;;2059207;28;20017;-74
2023/03/25 00:51:26;;;;;;;;;;;10.80;99.90;;;;;;2058786;28;19922;-74
2023/03/25 00:52:27;;;;;;;;;;;10.80;99.90;;;;;;2058451;28;20357;-73
2023/03/25 00:53:27;;;;;;;;;;;10.70;99.90;;;;;;2058693;28;19910;-74
2023/03/25 00:54:28;;;;;;;;;;;10.80;99.90;;;;;;2058289;28;19953;-74
2023/03/25 00:55:28;;;;;;;;;;;10.70;99.90;;;;;;2059436;28;19905;-74
2023/03/25 00:56:29;;;;;;;;;;;10.70;99.90;;;;;;2058957;28;19917;-74
2023/03/25 00:57:30;;;;;;;;;;;10.80;99.90;;;;;;2057838;28;20324;-74
2023/03/25 00:58:30;;;;;;;;;;;10.80;99.90;;;;;;2062221;28;20000;-74
2023/03/25 00:59:31;;;;;;;;;;;10.70;99.90;;;;;;2060830;28;19987;-74
2023/03/25 01:00:31;;;;;;;;;;;10.70;99.90;;;;;;2057315;28;19910;-74
2023/03/25 01:01:32;;;;;;;;;;;10.70;99.90;;;;;;2059235;28;19920;-74
2023/03/25 01:02:32;;;;;;;;;;;10.70;99.90;;;;;;2058739;28;20317;-74
2023/03/25 01:03:35;;;;;;;;;;;10.70;99.90;;;;;;2058203;28;19910;-74
2023/03/25 01:04:38;;;;;;;;;;;10.70;99.90;;;;;;2057164;28;19929;-75
2023/03/25 01:05:40;;;;;;;;;;;10.70;99.90;;;;;;2058469;28;20752;-74
2023/03/25 01:06:42;;;;;;;;;;;10.70;99.90;;;;;;2057161;28;19910;-73
2023/03/25 01:07:43;;;;;;;;;;;10.70;99.90;;;;;;2057501;28;19945;-74
2023/03/25 01:08:43;;;;;;;;;;;10.80;99.90;;;;;;2058623;28;19957;-74
2023/03/25 01:09:45;;;;;;;;;;;10.70;99.90;;;;;;2057485;28;20165;-73
2023/03/25 01:10:46;;;;;;;;;;;10.70;99.90;;;;;;2066609;28;20289;-74
2023/03/25 01:11:48;;;;;;;;;;;10.80;99.90;;;;;;2066586;28;19905;-74
2023/03/25 01:12:49;;;;;;;;;;;10.80;99.90;;;;;;2066413;28;20000;-74
2023/03/25 01:13:50;;;;;;;;;;;10.70;99.90;;;;;;2061343;28;19916;-74
2023/03/25 01:14:51;;;;;;;;;;;10.70;99.90;;;;;;2061027;28;19965;-74
2023/03/25 01:15:51;;;;;;;;;;;10.80;99.90;;;;;;2068284;28;19905;-74
2023/03/25 01:16:53;;;;;;;;;;;10.70;99.90;;;;;;2058011;28;19916;-73
2023/03/25 01:17:54;;;;;;;;;;;10.70;99.90;;;;;;2059230;28;19952;-74
2023/03/25 01:18:55;;;;;;;;;;;10.80;99.90;;;;;;2061804;28;19956;-74
2023/03/25 01:19:55;;;;;;;;;;;10.80;99.90;;;;;;2061431;28;20005;-73
2023/03/25 01:20:55;;;;;;;;;;;10.80;99.90;;;;;;2058963;28;19905;-74
2023/03/25 01:21:56;;;;;;;;;;;10.80;99.90;;;;;;2058925;28;19912;-73
2023/03/25 01:22:56;;;;;;;;;;;10.80;99.90;;;;;;2058056;28;20425;-74
2023/03/25 01:23:57;;;;;;;;;;;10.80;99.90;;;;;;2058738;28;19993;-74
2023/03/25 01:24:57;;;;;;;;;;;10.80;99.90;;;;;;2058707;28;20653;-74
2023/03/25 01:25:58;;;;;;;;;;;10.80;99.90;;;;;;2056650;28;19910;-74
2023/03/25 01:26:58;;;;;;;;;;;10.80;99.90;;;;;;2058499;28;20302;-74
2023/03/25 01:27:59;;;;;;;;;;;10.80;99.90;;;;;;2058432;28;19910;-73
2023/03/25 01:28:59;;;;;;;;;;;10.80;99.90;;;;;;2059281;28;20306;-74
2023/03/25 01:30:00;;;;;;;;;;;10.80;99.90;;;;;;2057534;28;20278;-73
2023/03/25 01:31:02;;;;;;;;;;;10.80;99.90;;;;;;2059197;28;19957;-73
2023/03/25 01:32:02;;;;;;;;;;;10.80;99.90;;;;;;2059742;28;19910;-74
2023/03/25 01:33:03;;;;;;;;;;;10.80;99.90;;;;;;2058609;28;19921;-74
2023/03/25 01:34:04;;;;;;;;;;;10.80;99.90;;;;;;2060065;28;19913;-74
2023/03/25 01:35:05;;;;;;;;;;;10.80;99.90;;;;;;2057396;28;20337;-74
2023/03/25 01:36:11;;;;;;;;;;;10.80;99.90;;;;;;2058695;28;20059;-74
2023/03/25 01:37:12;;;;;;;;;;;10.80;99.90;;;;;;2059219;28;20285;-74
2023/03/25 01:38:12;;;;;;;;;;;10.80;99.90;;;;;;2059018;28;19910;-73
2023/03/25 01:39:15;;;;;;;;;;;10.80;99.90;;;;;;2058926;28;20289;-74
2023/03/25 01:40:17;;;;;;;;;;;10.80;99.90;;;;;;2057577;28;19906;-74
2023/03/25 01:41:17;;;;;;;;;;;10.80;99.90;;;;;;2059167;28;19909;-74
2023/03/25 01:42:18;;;;;;;;;;;10.80;99.90;;;;;;2061358;28;19910;-74
2023/03/25 01:43:19;;;;;;;;;;;10.80;99.90;;;;;;2059657;28;19920;-74
2023/03/25 01:44:22;;;;;;;;;;;10.80;99.90;;;;;;2059790;28;19910;-74
2023/03/25 01:45:25;;;;;;;;;;;10.80;99.90;;;;;;2059127;28;19957;-74
2023/03/25 01:46:25;;;;;;;;;;;10.80;99.90;;;;;;2057209;28;20310;-74
2023/03/25 01:47:26;;;;;;;;;;;10.80;99.90;;;;;;2058963;28;19992;-74
2023/03/25 01:48:31;;;;;;;;;;;10.80;99.90;;;;;;2059368;28;20036;-74
2023/03/25 01:49:37;;;;;;;;;;;10.80;99.90;;;;;;2060155;28;19910;-74
2023/03/25 01:50:40;;;;;;;;;;;10.80;99.90;;;;;;2066822;28;20035;-74
2023/03/25 01:51:41;;;;;;;;;;;10.80;99.90;;;;;;2068320;28;19913;-74
2023/03/25 01:52:44;;;;;;;;;;;10.80;99.90;;;;;;2067116;28;19912;-74
2023/03/25 01:53:45;;;;;;;;;;;10.70;99.90;;;;;;2065884;28;20420;-74
2023/03/25 01:54:46;;;;;;;;;;;10.70;99.90;;;;;;2065922;28;20897;-74
2023/03/25 01:55:47;;;;;;;;;;;10.70;99.90;;;;;;2066074;28;20029;-74
2023/03/25 01:56:48;;;;;;;;;;;10.70;99.90;;;;;;2057622;28;19909;-74
2023/03/25 01:57:53;;;;;;;;;;;10.70;99.90;;;;;;2057650;28;19956;-74
2023/03/25 01:58:53;;;;;;;;;;;10.70;99.90;;;;;;2060790;28;19917;-74
2023/03/25 01:59:54;;;;;;;;;;;10.70;99.90;;;;;;2057984;28;20400;-74
2023/03/25 02:00:56;;;;;;;;;;;10.70;99.90;;;;;;2067480;28;20000;-73
2023/03/25 02:02:01;;;;;;;;;;;10.70;99.90;;;;;;2065307;28;19941;-73
2023/03/25 02:03:01;;;;;;;;;;;10.70;99.90;;;;;;2066388;28;19936;-72
2023/03/25 02:04:08;;;;;;;;;;;10.70;99.90;;;;;;2066078;28;19906;-73
2023/03/25 02:05:12;;;;;;;;;;;10.70;99.90;;;;;;2059254;28;19910;-73
2023/03/25 02:06:16;;;;;;;;;;;10.70;99.90;;;;;;2058665;28;19963;-73
2023/03/25 02:07:17;;;;;;;;;;;10.70;99.90;;;;;;2058987;28;20004;-73
2023/03/25 02:08:19;;;;;;;;;;;10.70;99.90;;;;;;2057966;28;19918;-73
2023/03/25 02:09:23;;;;;;;;;;;10.70;99.90;;;;;;2057102;28;20488;-73
2023/03/25 02:10:24;;;;;;;;;;;10.70;99.90;;;;;;2059410;28;19916;-73
2023/03/25 02:11:28;;;;;;;;;;;10.70;99.90;;;;;;2057412;28;19910;-72
2023/03/25 02:12:28;;;;;;;;;;;10.70;99.90;;;;;;2058230;28;19906;-73
2023/03/25 02:13:29;;;;;;;;;;;10.70;99.90;;;;;;2058708;28;19914;-73
2023/03/25 02:14:31;;;;;;;;;;;10.70;99.90;;;;;;2057794;28;19909;-73
2023/03/25 02:15:37;;;;;;;;;;;10.70;99.90;;;;;;2059192;28;20560;-72
2023/03/25 02:16:44;;;;;;;;;;;10.70;99.90;;;;;;2057153;28;20032;-73
2023/03/25 02:17:51;;;;;;;;;;;10.70;99.90;;;;;;2059085;28;19913;-73
2023/03/25 02:19:15;;;;;;;;;;;10.70;99.90;;;;;;2056144;28;19917;-73
2023/03/25 02:20:21;;;;;;;;;;;10.70;99.90;;;;;;2066408;28;19920;-73
2023/03/25 02:21:44;;;;;;;;;;;10.70;99.90;;;;;;2059576;28;19910;-73
2023/03/25 02:23:03;;;;;;;;;;;10.70;99.90;;;;;;2059863;28;19917;-73
2023/03/25 02:24:06;;;;;;;;;;;10.70;99.90;;;;;;2058888;28;19949;-73
2023/03/25 02:25:18;;;;;;;;;;;10.70;99.90;;;;;;2060430;28;19960;-72
2023/03/25 02:26:40;;;;;;;;;;;10.60;99.90;;;;;;2058208;28;20357;-72
2023/03/25 02:27:57;;;;;;;;;;;10.60;99.90;;;;;;2057279;28;20286;-73
2023/03/25 02:29:04;;;;;;;;;;;10.60;99.90;;;;;;2057847;28;19917;-73
2023/03/25 02:30:14;;;;;;;;;;;10.60;99.90;;;;;;2057639;28;19915;-73
2023/03/25 02:31:17;;;;;;;;;;;10.60;99.90;;;;;;2059299;28;19910;-73
2023/03/25 02:32:36;;;;;;;;;;;10.60;99.90;;;;;;2064977;28;19910;-73
2023/03/25 02:33:44;;;;;;;;;;;10.60;99.90;;;;;;2065121;28;19911;-73
2023/03/25 02:34:58;;;;;;;;;;;10.60;99.90;;;;;;2060406;28;20763;-73
2023/03/25 02:36:02;;;;;;;;;;;10.60;99.90;;;;;;2059589;28;19917;-73
2023/03/25 02:37:05;;;;;;;;;;;10.60;99.90;;;;;;2059199;28;19910;-73
2023/03/25 02:38:10;;;;;;;;;;;10.60;99.90;;;;;;2057372;28;19929;-73
2023/03/25 02:39:27;;;;;;;;;;;10.60;99.90;;;;;;2059676;28;19913;-73
2023/03/25 02:40:48;;;;;;;;;;;10.60;99.90;;;;;;2074553;28;19945;-72
2023/03/25 02:41:57;;;;;;;;;;;10.60;99.90;;;;;;2067688;28;19913;-73
2023/03/25 02:43:03;;;;;;;;;;;10.60;99.90;;;;;;2057841;28;19965;-73
2023/03/25 02:44:12;;;;;;;;;;;10.60;99.90;;;;;;2060049;28;19905;-73
2023/03/25 02:45:20;;;;;;;;;;;10.60;99.90;;;;;;2060210;28;20277;-72
2023/03/25 02:46:23;;;;;;;;;;;10.60;99.90;;;;;;2059862;28;20423;-73
2023/03/25 02:47:26;;;;;;;;;;;10.60;99.90;;;;;;2059192;28;19910;-72
2023/03/25 02:48:32;;;;;;;;;;;10.60;99.90;;;;;;2058293;28;19918;-73
2023/03/25 02:49:37;;;;;;;;;;;10.60;99.90;;;;;;2057480;28;19913;-73
2023/03/25 02:50:43;;;;;;;;;;;10.60;99.90;;;;;;2057983;28;20128;-73
2023/03/25 02:51:51;;;;;;;;;;;10.60;99.90;;;;;;2059082;28;19910;-73
2023/03/25 02:52:57;;;;;;;;;;;10.60;99.90;;;;;;2064030;28;20388;-73
2023/03/25 02:54:00;;;;;;;;;;;10.60;99.90;;;;;;2065138;28;19921;-73
2023/03/25 02:55:03;;;;;;;;;;;10.60;99.90;;;;;;2056399;28;19965;-73
2023/03/25 02:56:08;;;;;;;;;;;10.60;99.90;;;;;;2060087;28;19909;-73
2023/03/25 02:57:09;;;;;;;;;;;10.60;99.90;;;;;;2057462;28;19909;-73
2023/03/25 02:58:15;;;;;;;;;;;10.60;99.90;;;;;;2057052;28;19917;-73
2023/03/25 02:59:17;;;;;;;;;;;10.60;99.90;;;;;;2061531;28;19916;-73
2023/03/25 03:00:19;;;;;;;;;;;10.60;99.90;;;;;;2060565;28;20376;-73
2023/03/25 03:01:21;;;;;;;;;;;10.60;99.90;;;;;;2058320;28;20444;-73
2023/03/25 03:02:24;;;;;;;;;;;10.60;99.90;;;;;;2059891;28;19918;-72
2023/03/25 03:03:26;;;;;;;;;;;10.60;99.90;;;;;;2059045;28;19918;-73
2023/03/25 03:04:26;;;;;;;;;;;10.60;99.90;;;;;;2072719;28;19909;-73
2023/03/25 03:05:28;;;;;;;;;;;10.60;99.90;;;;;;2074365;28;19915;-73
2023/03/25 03:06:28;;;;;;;;;;;10.60;99.90;;;;;;2059516;28;19976;-72
2023/03/25 03:07:30;;;;;;;;;;;10.50;99.90;;;;;;2060346;28;19921;-73
2023/03/25 03:08:57;;;;;;;;;;;10.60;99.90;;;;;;2057329;28;19905;-73
2023/03/25 03:10:18;;;;;;;;;;;10.60;99.90;;;;;;2073278;28;20025;-73
2023/03/25 03:11:19;;;;;;;;;;;10.60;99.90;;;;;;2060122;28;20349;-73
2023/03/25 03:12:27;;;;;;;;;;;10.60;99.90;;;;;;2059641;28;19912;-72
2023/03/25 03:13:48;;;;;;;;;;;10.50;99.90;;;;;;2075324;28;19909;-73
2023/03/25 03:15:02;;;;;;;;;;;10.50;99.90;;;;;;2068433;28;19906;-73
2023/03/25 03:16:10;;;;;;;;;;;10.60;99.90;;;;;;2074544;28;19906;-73
2023/03/25 03:17:16;;;;;;;;;;;10.60;99.90;;;;;;2072185;28;19956;-73
2023/03/25 03:18:33;;;;;;;;;;;10.60;99.90;;;;;;2059849;28;20001;-73
2023/03/25 03:19:36;;;;;;;;;;;10.50;99.90;;;;;;2060622;28;19910;-73
2023/03/25 03:20:43;;;;;;;;;;;10.60;99.90;;;;;;2067005;28;19910;-73
2023/03/25 03:21:50;;;;;;;;;;;10.60;99.90;;;;;;2068160;28;19909;-73
2023/03/25 03:23:00;;;;;;;;;;;10.60;99.90;;;;;;2066370;28;19913;-73
2023/03/25 03:24:01;;;;;;;;;;;10.60;99.90;;;;;;2065449;28;19909;-73
2023/03/25 03:25:20;;;;;;;;;;;10.60;99.90;;;;;;2058250;28;20334;-73
2023/03/25 03:26:26;;;;;;;;;;;10.60;99.90;;;;;;2067088;28;19909;-73
2023/03/25 03:27:28;;;;;;;;;;;10.50;99.90;;;;;;2066249;28;19905;-73
2023/03/25 03:28:31;;;;;;;;;;;10.50;99.90;;;;;;2060679;28;19910;-73
2023/03/25 03:29:35;;;;;;;;;;;10.50;99.90;;;;;;2058706;28;19910;-73
2023/03/25 03:30:41;;;;;;;;;;;10.50;99.90;;;;;;2059741;28;20020;-73
2023/03/25 03:31:44;;;;;;;;;;;10.50;99.90;;;;;;2060665;28;19953;-73
2023/03/25 03:32:48;;;;;;;;;;;10.50;99.90;;;;;;2059531;28;19913;-73
2023/03/25 03:33:52;;;;;;;;;;;10.50;99.90;;;;;;2057955;28;19920;-73
2023/03/25 03:34:58;;;;;;;;;;;10.50;99.90;;;;;;2057874;28;19975;-73
2023/03/25 03:36:00;;;;;;;;;;;10.50;99.90;;;;;;2058513;28;19909;-73
2023/03/25 03:37:03;;;;;;;;;;;10.50;99.90;;;;;;2058523;28;19905;-73
2023/03/25 03:38:08;;;;;;;;;;;10.50;99.90;;;;;;2059808;28;19910;-73
2023/03/25 03:39:15;;;;;;;;;;;10.50;99.90;;;;;;2058741;28;19910;-73
2023/03/25 03:40:18;;;;;;;;;;;10.50;99.90;;;;;;2058273;28;20421;-73
2023/03/25 03:41:20;;;;;;;;;;;10.50;99.90;;;;;;2060716;28;19913;-73
2023/03/25 03:42:24;;;;;;;;;;;10.50;99.90;;;;;;2059049;28;19949;-73
2023/03/25 03:43:27;;;;;;;;;;;10.50;99.90;;;;;;2059348;28;20016;-73
2023/03/25 03:44:35;;;;;;;;;;;10.50;99.90;;;;;;2074822;28;20340;-73
2023/03/25 03:45:38;;;;;;;;;;;10.50;99.90;;;;;;2072403;28;20003;-73
2023/03/25 03:46:42;;;;;;;;;;;10.50;99.90;;;;;;2058411;28;20032;-73
2023/03/25 03:47:47;;;;;;;;;;;10.50;99.90;;;;;;2057627;28;19956;-73
2023/03/25 03:48:50;;;;;;;;;;;10.50;99.90;;;;;;2060294;28;19917;-73
2023/03/25 03:49:56;;;;;;;;;;;10.50;99.90;;;;;;2057179;28;19909;-73
2023/03/25 03:51:15;;;;;;;;;;;10.50;99.90;;;;;;2058180;28;19964;-73
2023/03/25 03:52:20;;;;;;;;;;;10.40;99.90;;;;;;2072402;28;19926;-73
2023/03/25 03:53:25;;;;;;;;;;;10.40;99.90;;;;;;2074096;28;19952;-73
2023/03/25 03:54:27;;;;;;;;;;;10.40;99.90;;;;;;2060489;28;19913;-73
2023/03/25 03:55:54;;;;;;;;;;;10.40;99.90;;;;;;2059174;28;19910;-73
2023/03/25 03:57:00;;;;;;;;;;;10.40;99.90;;;;;;2073482;28;20016;-73
2023/03/25 03:58:05;;;;;;;;;;;10.40;99.90;;;;;;2073134;28;19909;-73
2023/03/25 03:59:09;;;;;;;;;;;10.40;99.90;;;;;;2059855;28;19906;-72
2023/03/25 04:00:13;;;;;;;;;;;10.40;99.90;;;;;;2060417;28;19912;-73
2023/03/25 04:01:14;;;;;;;;;;;10.40;99.90;;;;;;2060780;28;19992;-73
2023/03/25 04:02:34;;;;;;;;;;;10.40;99.90;;;;;;2059539;28;19909;-75
2023/03/25 04:03:38;;;;;;;;;;;10.40;99.90;;;;;;2060267;28;19913;-73
2023/03/25 04:04:41;;;;;;;;;;;10.40;99.90;;;;;;2058646;28;19909;-73
2023/03/25 04:05:43;;;;;;;;;;;10.40;99.90;;;;;;2060335;28;20353;-73
2023/03/25 04:06:49;;;;;;;;;;;10.40;99.90;;;;;;2060032;28;19910;-72
2023/03/25 04:07:55;;;;;;;;;;;10.40;99.90;;;;;;2058916;28;19928;-73
2023/03/25 04:09:02;;;;;;;;;;;10.40;99.90;;;;;;2060820;28;19909;-73
2023/03/25 04:10:07;;;;;;;;;;;10.40;99.90;;;;;;2059757;28;19949;-73
2023/03/25 04:11:11;;;;;;;;;;;10.40;99.90;;;;;;2057660;28;20021;-72
2023/03/25 04:12:17;;;;;;;;;;;10.30;99.90;;;;;;2059643;28;19909;-73
2023/03/25 04:13:18;;;;;;;;;;;10.30;99.90;;;;;;2058730;28;19921;-73
2023/03/25 04:14:19;;;;;;;;;;;10.30;99.90;;;;;;2058451;28;19910;-73
2023/03/25 04:15:20;;;;;;;;;;;10.30;99.90;;;;;;2060022;28;19961;-73
2023/03/25 04:16:21;;;;;;;;;;;10.30;99.90;;;;;;2060085;28;19927;-73
2023/03/25 04:17:22;;;;;;;;;;;10.30;99.90;;;;;;2060797;28;19992;-73
2023/03/25 04:18:23;;;;;;;;;;;10.40;99.90;;;;;;2059011;28;19910;-73
2023/03/25 04:19:24;;;;;;;;;;;10.30;99.90;;;;;;2058406;28;19913;-73
2023/03/25 04:20:28;;;;;;;;;;;10.30;99.90;;;;;;2057668;28;20481;-72
2023/03/25 04:21:28;;;;;;;;;;;10.30;99.90;;;;;;2058345;28;20397;-73
2023/03/25 04:22:29;;;;;;;;;;;10.30;99.90;;;;;;2057509;28;20689;-73
2023/03/25 04:23:30;;;;;;;;;;;10.40;99.90;;;;;;2067356;28;19910;-73
2023/03/25 04:24:30;;;;;;;;;;;10.30;99.90;;;;;;2066566;28;19948;-73
2023/03/25 04:25:33;;;;;;;;;;;10.30;99.90;;;;;;2058977;28;19929;-73
2023/03/25 04:26:36;;;;;;;;;;;10.30;99.90;;;;;;2058640;28;19910;-73
2023/03/25 04:27:37;;;;;;;;;;;10.30;99.90;;;;;;2058484;28;19910;-73
2023/03/25 04:28:40;;;;;;;;;;;10.30;99.90;;;;;;2057131;28;19916;-73
2023/03/25 04:29:42;;;;;;;;;;;10.30;99.90;;;;;;2060401;28;19910;-73
2023/03/25 04:30:47;;;;;;;;;;;10.30;99.90;;;;;;2058992;28;20314;-73
2023/03/25 04:31:49;;;;;;;;;;;10.30;99.90;;;;;;2059400;28;19918;-73
2023/03/25 04:32:50;;;;;;;;;;;10.30;99.90;;;;;;2059463;28;19968;-73
2023/03/25 04:33:50;;;;;;;;;;;10.30;99.90;;;;;;2065688;28;19914;-73
2023/03/25 04:34:56;;;;;;;;;;;10.30;99.90;;;;;;2058528;28;19945;-73
2023/03/25 04:35:56;;;;;;;;;;;10.30;99.90;;;;;;2059782;28;20477;-73
2023/03/25 04:36:57;;;;;;;;;;;10.30;99.90;;;;;;2060112;28;20008;-73
2023/03/25 04:37:58;;;;;;;;;;;10.20;99.90;;;;;;2059543;28;19912;-73
2023/03/25 04:38:58;;;;;;;;;;;10.30;99.90;;;;;;2060125;28;19913;-73
2023/03/25 04:39:59;;;;;;;;;;;10.30;99.90;;;;;;2058985;28;19910;-73
2023/03/25 04:40:59;;;;;;;;;;;10.20;99.90;;;;;;2061276;28;19933;-73
2023/03/25 04:42:00;;;;;;;;;;;10.30;99.90;;;;;;2059376;28;19996;-73
2023/03/25 04:43:01;;;;;;;;;;;10.30;99.90;;;;;;2059742;28;19964;-73
2023/03/25 04:44:01;;;;;;;;;;;10.30;99.90;;;;;;2074504;28;19919;-73
2023/03/25 04:45:05;;;;;;;;;;;10.20;99.90;;;;;;2074713;28;19948;-72
2023/03/25 04:46:06;;;;;;;;;;;10.30;99.90;;;;;;2059363;28;19914;-73
2023/03/25 04:47:10;;;;;;;;;;;10.30;99.90;;;;;;2058347;28;19916;-73
2023/03/25 04:48:18;;;;;;;;;;;10.20;99.90;;;;;;2058206;28;20375;-73
2023/03/25 04:49:20;;;;;;;;;;;10.20;99.90;;;;;;2059407;28;19906;-73
2023/03/25 04:50:22;;;;;;;;;;;10.20;99.90;;;;;;2057956;28;19906;-73
2023/03/25 04:51:23;;;;;;;;;;;10.20;99.90;;;;;;2058424;28;19914;-73
2023/03/25 04:52:23;;;;;;;;;;;10.30;99.90;;;;;;2060030;28;19988;-73
2023/03/25 04:53:27;;;;;;;;;;;10.20;99.90;;;;;;2057252;28;19906;-73
2023/03/25 04:54:27;;;;;;;;;;;10.20;99.90;;;;;;2058718;28;19910;-73
2023/03/25 04:55:28;;;;;;;;;;;10.20;99.90;;;;;;2061685;28;19906;-73
2023/03/25 04:56:29;;;;;;;;;;;10.20;99.90;;;;;;2059083;28;19906;-73
2023/03/25 04:57:30;;;;;;;;;;;10.20;99.90;;;;;;2057898;28;19910;-73
2023/03/25 04:58:30;;;;;;;;;;;10.20;99.90;;;;;;2061068;28;19913;-72
2023/03/25 04:59:31;;;;;;;;;;;10.20;99.90;;;;;;2073277;28;20328;-73
2023/03/25 05:00:31;;;;;;;;;;;10.20;99.90;;;;;;2074228;28;19924;-73
2023/03/25 05:01:36;;;;;;;;;;;10.20;99.90;;;;;;2059357;28;19972;-73
2023/03/25 05:02:42;;;;;;;;;;;10.20;99.90;;;;;;2072478;28;19916;-73
2023/03/25 05:03:42;;;;;;;;;;;10.20;99.90;;;;;;2073267;28;20650;-73
2023/03/25 05:04:46;;;;;;;;;;;10.20;99.90;;;;;;2060094;28;20431;-73
2023/03/25 05:05:46;;;;;;;;;;;10.20;99.90;;;;;;2067546;28;19916;-73
2023/03/25 05:06:49;;;;;;;;;;;10.20;99.90;;;;;;2076026;28;19996;-74
2023/03/25 05:07:50;;;;;;;;;;;10.20;99.90;;;;;;2059071;28;19916;-73
2023/03/25 05:08:51;;;;;;;;;;;10.20;99.90;;;;;;2060134;28;20028;-73
2023/03/25 05:09:51;;;;;;;;;;;10.20;99.90;;;;;;2062359;28;19909;-73
2023/03/25 05:10:52;;;;;;;;;;;10.20;99.90;;;;;;2058340;28;19910;-73
2023/03/25 05:11:52;;;;;;;;;;;10.20;99.90;;;;;;2057209;28;19910;-73
2023/03/25 05:13:04;;;;;;;;;;;10.10;99.90;;;;;;2059132;28;19910;-73
2023/03/25 05:14:05;;;;;;;;;;;10.20;99.90;;;;;;2057922;28;19906;-73
2023/03/25 05:15:06;;;;;;;;;;;10.10;99.90;;;;;;2058621;28;20317;-73
2023/03/25 05:16:07;;;;;;;;;;;10.10;99.90;;;;;;2058131;28;19913;-73
2023/03/25 05:17:07;;;;;;;;;;;10.20;99.90;;;;;;2057688;28;20441;-73
2023/03/25 05:18:08;;;;;;;;;;;10.10;99.90;;;;;;2060065;28;19920;-73
2023/03/25 05:19:09;;;;;;;;;;;10.20;99.90;;;;;;2059304;28;19909;-73
2023/03/25 05:20:10;;;;;;;;;;;10.20;99.90;;;;;;2067487;28;19909;-73
2023/03/25 05:21:11;;;;;;;;;;;10.10;99.90;;;;;;2066000;28;19909;-73
2023/03/25 05:22:11;;;;;;;;;;;10.20;99.90;;;;;;2056160;28;19980;-73
2023/03/25 05:23:15;;;;;;;;;;;10.20;99.90;;;;;;2057906;28;19918;-73
2023/03/25 05:24:15;;;;;;;;;;;10.10;99.90;;;;;;2063839;28;20047;-73
2023/03/25 05:25:17;;;;;;;;;;;10.10;99.90;;;;;;2056842;28;20841;-73
2023/03/25 05:26:18;;;;;;;;;;;10.10;99.90;;;;;;2057024;28;19910;-72
2023/03/25 05:27:19;;;;;;;;;;;10.20;99.90;;;;;;2059877;28;19961;-73
2023/03/25 05:28:19;;;;;;;;;;;10.10;99.90;;;;;;2059794;28;19917;-73
2023/03/25 05:29:20;;;;;;;;;;;10.20;99.90;;;;;;2065994;28;19910;-73
2023/03/25 05:30:20;;;;;;;;;;;10.10;99.90;;;;;;2064165;28;19912;-73
2023/03/25 05:31:20;;;;;;;;;;;10.20;99.90;;;;;;2058174;28;19956;-73
2023/03/25 05:32:22;;;;;;;;;;;10.20;99.90;;;;;;2072573;28;20615;-73
2023/03/25 05:33:22;;;;;;;;;;;10.10;99.90;;;;;;2074361;28;19992;-73
2023/03/25 05:34:24;;;;;;;;;;;10.20;99.90;;;;;;2058474;28;19910;-73
2023/03/25 05:35:25;;;;;;;;;;;10.10;99.90;;;;;;2058035;28;19917;-73
2023/03/25 05:36:26;;;;;;;;;;;10.10;99.90;;;;;;2065806;28;19910;-73
2023/03/25 05:37:26;;;;;;;;;;;10.10;99.90;;;;;;2065226;28;20004;-73
2023/03/25 05:38:27;;;;;;;;;;;10.10;99.90;;;;;;2057666;28;19995;-73
2023/03/25 05:39:27;;;;;;;;;;;10.10;99.90;;;;;;2065965;28;19910;-73
2023/03/25 05:40:28;;;;;;;;;;;10.10;99.90;;;;;;2064065;28;20008;-73
2023/03/25 05:41:31;;;;;;;;;;;10.10;99.90;;;;;;2057740;28;19964;-73
2023/03/25 05:42:33;;;;;;;;;;;10.10;99.90;;;;;;2058065;28;19920;-73
2023/03/25 05:43:34;;;;;;;;;;;10.10;99.90;;;;;;2058703;28;19914;-73
2023/03/25 05:44:35;;;;;;;;;;;10.10;99.90;;;;;;2058371;28;19997;-73
2023/03/25 05:45:35;;;;;;;;;;;10.10;99.90;;;;;;2058098;28;20343;-73
2023/03/25 05:46:36;;;;;;;;;;;10.00;99.90;;;;;;2059899;28;19916;-73
2023/03/25 05:47:36;;;;;;;;;;;10.10;99.90;;;;;;2058932;28;19917;-73
2023/03/25 05:48:40;;;;;;;;;;;10.10;99.90;;;;;;2058003;28;20362;-73
2023/03/25 05:49:40;;;;;;;;;;;10.10;99.90;;;;;;2059473;28;19964;-73
2023/03/25 05:50:43;;;;;;;;;;;10.10;99.90;;;;;;2066144;28;19913;-73
2023/03/25 05:51:44;;;;;;;;;;;10.10;99.90;;;;;;2066042;28;19914;-73
2023/03/25 05:52:48;;;;;;;;;;;10.10;99.90;;;;;;2059751;28;19914;-73
2023/03/25 05:53:49;;;;;;;;;;;10.10;99.90;;;;;;2059238;28;19981;-73
2023/03/25 05:54:49;;;;;;;;;;;10.10;99.90;;;;;;2058890;28;19917;-73
2023/03/25 05:55:50;;;;;;;;;;;10.10;99.90;;;;;;2058790;28;19910;-73
2023/03/25 05:56:51;;;;;;;;;;;10.10;99.90;;;;;;2059322;28;20380;-73
2023/03/25 05:57:51;;;;;;;;;;;10.10;99.90;;;;;;2059370;28;19909;-73
2023/03/25 05:58:52;;;;;;;;;;;10.10;99.90;;;;;;2060247;28;19906;-73
2023/03/25 05:59:52;;;;;;;;;;;10.10;99.90;;;;;;2057514;28;20041;-73
2023/03/25 06:00:53;;;;;;;;;;;10.10;99.90;;;;;;2058591;28;19909;-73
2023/03/25 06:01:53;;;;;;;;;;;10.10;99.90;;;;;;2059452;28;20436;-73
2023/03/25 06:02:54;;;;;;;;;;;10.10;99.90;;;;;;2057799;28;19931;-73
2023/03/25 06:03:56;;;;;;;;;;;10.10;99.90;;;;;;2059469;28;19914;-73
2023/03/25 06:04:56;;;;;;;;;;;10.10;99.90;;;;;;2058119;28;19910;-73
2023/03/25 06:05:57;;;;;;;;;;;10.10;99.90;;;;;;2058370;28;19960;-73
2023/03/25 06:06:57;;;;;;;;;;;10.10;99.90;;;;;;2057821;28;19909;-73